createdAt,value
2018-02-07T00:01:20.617Z,1.70
2018-02-07T00:03:48.886Z,1.60
2018-02-07T00:06:18.645Z,1.70
2018-02-07T00:08:46.891Z,1.70
2018-02-07T00:11:15.158Z,1.70
2018-02-07T00:13:43.464Z,1.90
2018-02-07T00:16:12.473Z,2.00
2018-02-07T00:18:41.181Z,2.00
2018-02-07T00:21:09.433Z,2.10
2018-02-07T00:23:37.673Z,2.20
2018-02-07T00:26:05.945Z,2.20
2018-02-07T00:28:34.193Z,2.20
2018-02-07T00:31:02.994Z,2.20
2018-02-07T00:33:31.271Z,2.20
2018-02-07T00:35:59.526Z,2.30
2018-02-07T00:38:27.782Z,2.10
2018-02-07T00:43:30.702Z,1.80
2018-02-07T00:45:58.973Z,1.60
2018-02-07T00:48:27.222Z,1.60
2018-02-07T00:50:56.250Z,1.50
2018-02-07T00:53:24.590Z,1.50
2018-02-07T00:55:53.614Z,1.40
2018-02-07T00:58:21.866Z,1.40
2018-02-07T01:00:50.329Z,1.40
2018-02-07T01:03:18.589Z,1.40
2018-02-07T01:05:46.830Z,1.40
2018-02-07T01:08:15.110Z,1.30
2018-02-07T01:10:43.375Z,1.30
2018-02-07T01:13:11.614Z,1.30
2018-02-07T01:15:39.898Z,1.30
2018-02-07T01:18:08.354Z,1.30
2018-02-07T01:20:36.613Z,1.30
2018-02-07T01:23:04.935Z,1.20
2018-02-07T01:25:33.190Z,1.20
2018-02-07T01:28:01.450Z,1.20
2018-02-07T01:30:29.727Z,1.20
2018-02-07T01:32:58.512Z,1.20
2018-02-07T01:35:26.742Z,1.20
2018-02-07T01:37:56.106Z,1.10
2018-02-07T01:40:24.366Z,1.10
2018-02-07T01:42:52.618Z,1.10
2018-02-07T01:45:21.228Z,1.10
2018-02-07T01:47:49.479Z,1.30
2018-02-07T01:50:17.727Z,1.30
2018-02-07T01:52:47.226Z,1.40
2018-02-07T01:55:16.246Z,1.40
2018-02-07T01:57:44.498Z,1.40
2018-02-07T02:00:12.778Z,1.50
2018-02-07T02:02:41.111Z,1.60
2018-02-07T02:05:09.358Z,1.50
2018-02-07T02:07:37.863Z,1.40
2018-02-07T02:10:06.119Z,1.30
2018-02-07T02:12:34.366Z,1.20
2018-02-07T02:15:02.642Z,1.10
2018-02-07T02:17:31.670Z,0.90
2018-02-07T02:19:59.922Z,0.90
2018-02-07T02:22:28.202Z,1.00
2018-02-07T02:24:56.451Z,1.10
2018-02-07T02:27:24.702Z,1.00
2018-02-07T02:29:53.170Z,1.00
2018-02-07T02:32:21.593Z,1.00
2018-02-07T02:34:50.168Z,1.00
2018-02-07T02:37:18.442Z,0.90
2018-02-07T02:39:46.702Z,0.90
2018-02-07T02:42:14.950Z,1.00
2018-02-07T02:44:44.422Z,1.10
2018-02-07T02:47:13.450Z,1.30
2018-02-07T02:49:41.698Z,1.30
2018-02-07T02:52:10.162Z,1.30
2018-02-07T02:54:38.415Z,1.10
2018-02-07T02:57:06.663Z,1.00
2018-02-07T02:59:35.038Z,0.80
2018-02-07T03:02:03.291Z,0.70
2018-02-07T03:04:31.534Z,0.60
2018-02-07T03:06:59.810Z,0.40
2018-02-07T03:09:32.270Z,0.40
2018-02-07T03:12:00.718Z,0.30
2018-02-07T03:14:28.969Z,0.30
2018-02-07T03:16:57.994Z,0.40
2018-02-07T03:19:26.270Z,0.40
2018-02-07T03:21:54.521Z,0.40
2018-02-07T03:24:23.994Z,0.40
2018-02-07T03:26:52.274Z,0.30
2018-02-07T03:29:20.522Z,0.30
2018-02-07T03:31:48.778Z,0.30
2018-02-07T03:34:17.287Z,0.30
2018-02-07T03:36:45.922Z,0.20
2018-02-07T03:39:14.946Z,0.20
2018-02-07T03:41:44.366Z,0.20
2018-02-07T03:44:12.625Z,0.20
2018-02-07T03:46:40.878Z,0.20
2018-02-07T03:49:09.153Z,0.20
2018-02-07T03:51:37.398Z,0.20
2018-02-07T03:54:05.646Z,0.20
2018-02-07T03:56:34.130Z,0.20
2018-02-07T03:59:02.386Z,0.20
2018-02-07T04:01:30.634Z,0.20
2018-02-07T04:03:59.678Z,0.20
2018-02-07T04:06:28.404Z,0.10
2018-02-07T04:08:56.674Z,0.20
2018-02-07T04:11:25.074Z,0.20
2018-02-07T04:13:54.097Z,0.20
2018-02-07T04:16:22.347Z,0.10
2018-02-07T04:18:50.879Z,0.20
2018-02-07T04:21:19.130Z,0.20
2018-02-07T04:23:47.380Z,0.30
2018-02-07T04:26:15.658Z,0.30
2018-02-07T04:28:44.675Z,0.20
2018-02-07T04:31:12.922Z,0.20
2018-02-07T04:33:41.410Z,0.20
2018-02-07T04:36:10.437Z,0.10
2018-02-07T04:38:38.850Z,0.10
2018-02-07T04:41:07.522Z,0.10
2018-02-07T04:43:35.818Z,0.10
2018-02-07T04:46:04.070Z,0.10
2018-02-07T04:48:32.346Z,0.00
2018-02-07T04:51:00.607Z,0.00
2018-02-07T04:53:28.890Z,0.00
2018-02-07T04:55:57.154Z,0.00
2018-02-07T04:58:25.518Z,0.00
2018-02-07T05:00:54.530Z,0.00
2018-02-07T05:03:23.223Z,0.00
2018-02-07T05:05:51.541Z,0.00
2018-02-07T05:08:19.797Z,0.00
2018-02-07T05:10:48.070Z,-0.10
2018-02-07T05:13:16.326Z,-0.10
2018-02-07T05:15:44.596Z,-0.10
2018-02-07T05:18:12.874Z,-0.10
2018-02-07T05:20:41.134Z,-0.10
2018-02-07T05:23:09.390Z,-0.10
2018-02-07T05:25:38.763Z,-0.10
2018-02-07T05:28:08.192Z,-0.10
2018-02-07T05:30:36.440Z,-0.10
2018-02-07T05:33:04.718Z,-0.10
2018-02-07T05:35:32.970Z,0.00
2018-02-07T05:38:01.223Z,0.20
2018-02-07T05:40:29.872Z,0.20
2018-02-07T05:42:58.103Z,0.30
2018-02-07T05:45:29.603Z,0.20
2018-02-07T05:47:58.092Z,0.10
2018-02-07T05:50:26.339Z,0.00
2018-02-07T05:52:54.621Z,-0.10
2018-02-07T05:55:22.886Z,-0.10
2018-02-07T05:57:51.133Z,-0.10
2018-02-07T06:00:19.386Z,-0.10
2018-02-07T06:02:47.665Z,0.00
2018-02-07T06:05:16.690Z,-0.10
2018-02-07T06:07:44.950Z,-0.10
2018-02-07T06:10:13.482Z,0.00
2018-02-07T06:12:41.729Z,0.10
2018-02-07T06:15:10.019Z,0.30
2018-02-07T06:17:38.295Z,0.30
2018-02-07T06:20:06.554Z,0.20
2018-02-07T06:22:34.903Z,-0.10
2018-02-07T06:25:03.162Z,-0.20
2018-02-07T06:27:31.414Z,-0.30
2018-02-07T06:29:59.671Z,-0.30
2018-02-07T06:32:28.266Z,-0.30
2018-02-07T06:34:56.557Z,0.00
2018-02-07T06:37:24.786Z,0.00
2018-02-07T06:39:53.058Z,0.00
2018-02-07T06:42:22.642Z,-0.10
2018-02-07T06:44:50.894Z,-0.10
2018-02-07T06:47:19.273Z,0.00
2018-02-07T06:49:47.502Z,-0.10
2018-02-07T06:52:15.754Z,-0.20
2018-02-07T06:54:44.538Z,-0.10
2018-02-07T06:57:12.793Z,-0.10
2018-02-07T06:59:41.169Z,-0.30
2018-02-07T07:02:09.434Z,-0.30
2018-02-07T07:04:37.695Z,-0.30
2018-02-07T07:07:05.957Z,-0.40
2018-02-07T07:09:34.242Z,-0.30
2018-02-07T07:12:02.502Z,-0.30
2018-02-07T07:14:30.762Z,-0.30
2018-02-07T07:16:59.411Z,-0.20
2018-02-07T07:19:27.658Z,0.00
2018-02-07T07:21:55.910Z,-0.10
2018-02-07T07:24:24.190Z,-0.20
2018-02-07T07:26:53.340Z,-0.30
2018-02-07T07:29:21.586Z,-0.30
2018-02-07T07:31:49.866Z,-0.20
2018-02-07T07:34:18.130Z,-0.30
2018-02-07T07:36:46.390Z,-0.30
2018-02-07T07:39:15.851Z,-0.20
2018-02-07T07:41:44.098Z,-0.20
2018-02-07T07:44:13.030Z,-0.30
2018-02-07T07:46:41.318Z,-0.30
2018-02-07T07:49:09.569Z,-0.20
2018-02-07T07:51:37.818Z,-0.10
2018-02-07T07:54:06.098Z,0.00
2018-02-07T07:56:34.350Z,0.00
2018-02-07T07:59:03.365Z,0.00
2018-02-07T08:01:31.814Z,0.00
2018-02-07T08:04:00.078Z,-0.10
2018-02-07T08:06:28.332Z,-0.10
2018-02-07T08:08:56.936Z,-0.10
2018-02-07T08:11:25.954Z,-0.10
2018-02-07T08:13:54.210Z,-0.10
2018-02-07T08:16:22.486Z,0.00
2018-02-07T08:18:50.738Z,0.00
2018-02-07T08:21:19.015Z,0.10
2018-02-07T08:23:47.610Z,0.20
2018-02-07T08:26:15.854Z,0.20
2018-02-07T08:28:44.202Z,0.20
2018-02-07T08:31:13.245Z,0.40
2018-02-07T08:33:41.732Z,0.40
2018-02-07T08:36:09.961Z,0.50
2018-02-07T08:38:38.239Z,0.50
2018-02-07T08:41:06.530Z,0.60
2018-02-07T08:43:34.774Z,0.70
2018-02-07T08:46:04.442Z,0.90
2018-02-07T08:48:32.683Z,0.90
2018-02-07T08:51:00.939Z,0.90
2018-02-07T08:53:29.292Z,1.00
2018-02-07T08:55:57.523Z,1.00
2018-02-07T08:58:25.774Z,1.10
2018-02-07T09:00:54.051Z,1.10
2018-02-07T09:03:23.061Z,1.40
2018-02-07T09:05:51.321Z,1.40
2018-02-07T09:08:20.153Z,1.50
2018-02-07T09:10:48.406Z,1.70
2018-02-07T09:13:16.655Z,1.80
2018-02-07T09:15:44.934Z,1.90
2018-02-07T09:18:13.950Z,2.10
2018-02-07T09:20:42.202Z,2.10
2018-02-07T09:23:10.478Z,2.10
2018-02-07T09:25:38.734Z,2.20
2018-02-07T09:28:06.986Z,2.30
2018-02-07T09:30:35.718Z,2.30
2018-02-07T09:33:03.969Z,2.50
2018-02-07T09:35:32.226Z,2.40
2018-02-07T09:38:00.502Z,2.40
2018-02-07T09:40:28.759Z,2.60
2018-02-07T09:42:57.010Z,2.70
2018-02-07T09:45:25.290Z,2.90
2018-02-07T09:47:53.871Z,3.20
2018-02-07T09:50:22.890Z,4.00
2018-02-07T09:52:51.274Z,4.00
2018-02-07T09:55:19.538Z,4.40
2018-02-07T09:57:47.790Z,4.50
2018-02-07T10:00:16.074Z,4.50
2018-02-07T10:02:45.094Z,4.80
2018-02-07T10:05:14.339Z,4.80
2018-02-07T10:07:42.618Z,5.10
2018-02-07T10:10:10.874Z,5.40
2018-02-07T10:12:39.158Z,5.40
2018-02-07T10:15:07.735Z,5.30
2018-02-07T10:17:36.004Z,5.40
2018-02-07T10:20:04.262Z,5.40
2018-02-07T10:22:32.538Z,5.50
2018-02-07T10:25:00.790Z,5.60
2018-02-07T10:27:29.805Z,5.90
2018-02-07T10:29:58.081Z,5.90
2018-02-07T10:32:26.330Z,6.00
2018-02-07T10:34:54.590Z,6.10
2018-02-07T10:37:23.094Z,6.10
2018-02-07T10:39:51.346Z,6.00
2018-02-07T10:42:19.593Z,5.90
2018-02-07T10:44:47.873Z,5.80
2018-02-07T10:47:16.127Z,5.80
2018-02-07T10:49:44.574Z,6.00
2018-02-07T10:52:13.745Z,6.50
2018-02-07T10:54:41.983Z,6.50
2018-02-07T10:57:10.227Z,6.70
2018-02-07T10:59:39.073Z,6.90
2018-02-07T11:02:07.327Z,7.10
2018-02-07T11:04:35.590Z,7.20
2018-02-07T11:07:03.878Z,7.20
2018-02-07T11:09:32.122Z,7.30
2018-02-07T11:12:00.379Z,7.40
2018-02-07T11:14:28.649Z,7.50
2018-02-07T11:16:56.903Z,7.60
2018-02-07T11:19:25.167Z,7.80
2018-02-07T11:21:53.873Z,8.00
2018-02-07T11:24:22.207Z,8.20
2018-02-07T11:26:51.224Z,8.70
2018-02-07T11:29:20.672Z,8.70
2018-02-07T11:31:48.926Z,9.10
2018-02-07T11:34:17.176Z,9.30
2018-02-07T11:36:45.454Z,9.60
2018-02-07T11:39:13.703Z,9.90
2018-02-07T11:41:42.722Z,10.20
2018-02-07T11:44:11.135Z,10.20
2018-02-07T11:46:39.473Z,10.30
2018-02-07T11:49:07.734Z,10.40
2018-02-07T11:51:36.242Z,10.40
2018-02-07T11:54:05.127Z,10.40
2018-02-07T11:56:33.378Z,10.60
2018-02-07T11:59:02.057Z,10.80
2018-02-07T12:01:30.296Z,11.00
2018-02-07T12:03:58.551Z,11.00
2018-02-07T12:06:26.890Z,10.90
2018-02-07T12:08:55.153Z,11.00
2018-02-07T12:11:23.408Z,11.20
2018-02-07T12:13:51.705Z,11.50
2018-02-07T12:16:19.979Z,11.70
2018-02-07T12:18:48.278Z,12.00
2018-02-07T12:21:16.558Z,12.20
2018-02-07T12:23:44.866Z,12.30
2018-02-07T12:26:13.500Z,12.00
2018-02-07T12:28:41.950Z,12.00
2018-02-07T12:31:10.206Z,12.10
2018-02-07T12:33:38.481Z,12.20
2018-02-07T12:36:06.758Z,12.30
2018-02-07T12:38:35.105Z,12.30
2018-02-07T12:41:03.346Z,12.40
2018-02-07T12:43:31.623Z,12.50
2018-02-07T12:45:59.885Z,12.40
2018-02-07T12:48:28.142Z,12.50
2018-02-07T12:50:56.755Z,12.50
2018-02-07T12:53:25.432Z,12.60
2018-02-07T12:55:54.586Z,12.80
2018-02-07T12:58:22.870Z,12.90
2018-02-07T13:00:51.142Z,13.00
2018-02-07T13:03:20.162Z,13.50
2018-02-07T13:05:48.498Z,13.50
2018-02-07T13:08:16.713Z,13.60
2018-02-07T13:10:44.965Z,13.50
2018-02-07T13:13:14.078Z,13.20
2018-02-07T13:15:42.342Z,13.20
2018-02-07T13:18:11.618Z,13.00
2018-02-07T13:20:40.022Z,13.00
2018-02-07T13:23:09.043Z,13.40
2018-02-07T13:25:37.306Z,13.40
2018-02-07T13:28:05.623Z,13.70
2018-02-07T13:30:33.870Z,14.10
2018-02-07T13:33:02.130Z,14.40
2018-02-07T13:35:30.686Z,14.60
2018-02-07T13:37:59.080Z,14.80
2018-02-07T13:40:27.314Z,14.80
2018-02-07T13:42:55.595Z,14.60
2018-02-07T13:45:24.599Z,14.50
2018-02-07T13:47:52.858Z,14.50
2018-02-07T13:50:21.218Z,14.50
2018-02-07T13:52:49.477Z,14.20
2018-02-07T13:55:17.950Z,14.10
2018-02-07T13:57:47.092Z,14.60
2018-02-07T14:00:15.342Z,14.60
2018-02-07T14:02:43.602Z,14.70
2018-02-07T14:05:11.886Z,14.60
2018-02-07T14:07:40.154Z,14.40
2018-02-07T14:10:09.183Z,14.70
2018-02-07T14:12:38.441Z,14.70
2018-02-07T14:15:08.634Z,14.80
2018-02-07T14:17:37.019Z,14.80
2018-02-07T14:20:06.559Z,14.70
2018-02-07T14:22:34.818Z,14.30
2018-02-07T14:25:04.010Z,13.80
2018-02-07T14:27:33.326Z,13.80
2018-02-07T14:30:02.375Z,13.70
2018-02-07T14:32:32.818Z,13.70
2018-02-07T14:35:01.360Z,13.50
2018-02-07T14:37:29.610Z,13.30
2018-02-07T14:39:58.626Z,13.10
2018-02-07T14:42:27.062Z,13.10
2018-02-07T14:45:00.559Z,13.00
2018-02-07T14:47:28.836Z,12.90
2018-02-07T14:49:57.094Z,12.70
2018-02-07T14:52:25.389Z,12.60
2018-02-07T14:54:53.722Z,12.50
2018-02-07T14:57:23.063Z,12.40
2018-02-07T14:59:51.442Z,12.30
2018-02-07T15:02:19.829Z,12.10
2018-02-07T15:04:48.082Z,11.90
2018-02-07T15:07:16.334Z,11.80
2018-02-07T15:09:44.618Z,11.60
2018-02-07T15:12:12.879Z,11.50
2018-02-07T15:14:41.133Z,11.40
2018-02-07T15:17:10.178Z,10.90
2018-02-07T15:19:38.460Z,10.90
2018-02-07T15:22:06.881Z,10.70
2018-02-07T15:24:36.562Z,10.40
2018-02-07T15:27:04.849Z,10.20
2018-02-07T15:29:33.111Z,9.90
2018-02-07T15:32:01.486Z,9.80
2018-02-07T15:34:29.722Z,9.50
2018-02-07T15:36:58.059Z,9.40
2018-02-07T15:39:26.462Z,9.40
2018-02-07T15:41:55.477Z,9.10
2018-02-07T15:44:23.814Z,9.10
2018-02-07T15:46:52.142Z,8.90
2018-02-07T15:49:20.406Z,8.70
2018-02-07T15:51:48.659Z,8.60
2018-02-07T15:54:17.714Z,8.40
2018-02-07T15:56:46.323Z,8.40
2018-02-07T15:59:14.872Z,8.30
2018-02-07T16:01:43.130Z,8.10
2018-02-07T16:04:11.378Z,8.10
2018-02-07T16:06:39.632Z,7.90
2018-02-07T16:09:08.318Z,7.70
2018-02-07T16:11:36.586Z,7.60
2018-02-07T16:14:04.842Z,7.40
2018-02-07T16:16:33.118Z,7.30
2018-02-07T16:19:01.366Z,7.20
2018-02-07T16:21:29.618Z,7.20
2018-02-07T16:23:57.926Z,7.10
2018-02-07T16:26:26.177Z,7.00
2018-02-07T16:28:54.634Z,7.00
2018-02-07T16:31:23.199Z,6.90
2018-02-07T16:33:51.699Z,6.80
2018-02-07T16:36:20.078Z,6.70
2018-02-07T16:38:48.355Z,6.60
2018-02-07T16:41:17.024Z,6.50
2018-02-07T16:43:45.253Z,6.50
2018-02-07T16:46:13.537Z,6.50
2018-02-07T16:48:41.826Z,6.50
2018-02-07T16:51:10.074Z,6.40
2018-02-07T16:53:39.418Z,6.40
2018-02-07T16:56:07.697Z,6.30
2018-02-07T16:58:35.954Z,6.40
2018-02-07T17:01:04.230Z,6.40
2018-02-07T17:03:33.482Z,6.40
2018-02-07T17:06:01.922Z,6.30
2018-02-07T17:08:31.180Z,6.30
2018-02-07T17:11:00.459Z,6.20
2018-02-07T17:13:28.840Z,6.20
2018-02-07T17:15:58.102Z,6.20
2018-02-07T17:18:27.466Z,6.20
2018-02-07T17:20:56.482Z,6.30
2018-02-07T17:23:24.767Z,6.30
2018-02-07T17:25:53.020Z,6.40
2018-02-07T17:28:22.496Z,6.40
2018-02-07T17:30:50.897Z,6.30
2018-02-07T17:33:19.918Z,6.20
2018-02-07T17:35:48.245Z,6.10
2018-02-07T17:38:16.623Z,6.10
2018-02-07T17:40:44.875Z,6.00
2018-02-07T17:43:13.122Z,6.10
2018-02-07T17:45:41.406Z,6.00
2018-02-07T17:48:09.658Z,5.90
2018-02-07T17:50:37.910Z,5.90
2018-02-07T17:53:06.371Z,5.80
2018-02-07T17:55:34.670Z,5.70
2018-02-07T17:58:03.074Z,5.70
2018-02-07T18:00:32.550Z,5.60
2018-02-07T18:03:01.031Z,5.60
2018-02-07T18:05:29.294Z,5.50
2018-02-07T18:07:57.554Z,5.50
2018-02-07T18:10:25.806Z,5.50
2018-02-07T18:12:54.242Z,5.40
2018-02-07T18:15:22.516Z,5.40
2018-02-07T18:17:50.766Z,5.40
2018-02-07T18:20:19.068Z,5.40
2018-02-07T18:22:47.537Z,5.20
2018-02-07T18:25:15.783Z,5.20
2018-02-07T18:27:44.210Z,5.30
2018-02-07T18:30:12.514Z,5.30
2018-02-07T18:32:40.770Z,5.30
2018-02-07T18:35:09.014Z,5.40
2018-02-07T18:37:37.301Z,5.40
2018-02-07T18:40:05.558Z,5.30
2018-02-07T18:42:33.803Z,5.30
2018-02-07T18:45:02.335Z,5.30
2018-02-07T18:47:30.594Z,5.30
2018-02-07T18:49:59.005Z,5.30
2018-02-07T18:52:27.282Z,5.30
2018-02-07T18:54:56.086Z,5.20
2018-02-07T18:57:24.336Z,5.20
2018-02-07T18:59:53.162Z,5.20
2018-02-07T19:02:22.502Z,5.20
2018-02-07T19:04:50.939Z,5.10
2018-02-07T19:07:19.333Z,5.10
2018-02-07T19:09:48.497Z,5.30
2018-02-07T19:12:16.746Z,5.30
2018-02-07T19:14:45.033Z,5.20
2018-02-07T19:17:13.283Z,5.10
2018-02-07T19:19:41.710Z,5.10
2018-02-07T19:22:10.123Z,5.20
2018-02-07T19:24:38.470Z,5.20
2018-02-07T19:27:06.719Z,5.20
2018-02-07T19:29:35.058Z,5.20
2018-02-07T19:32:03.305Z,5.10
2018-02-07T19:34:31.562Z,5.10
2018-02-07T19:36:59.836Z,5.10
2018-02-07T19:39:29.050Z,5.10
2018-02-07T19:41:57.426Z,5.10
2018-02-07T19:44:25.861Z,5.00
2018-02-07T19:46:55.107Z,4.90
2018-02-07T19:49:23.358Z,4.90
2018-02-07T19:51:52.872Z,4.90
2018-02-07T19:54:21.177Z,4.90
2018-02-07T19:56:50.162Z,4.80
2018-02-07T19:59:18.743Z,4.90
2018-02-07T20:01:47.602Z,5.10
2018-02-07T20:04:15.855Z,5.10
2018-02-07T20:06:44.330Z,5.00
2018-02-07T20:09:13.350Z,5.00
2018-02-07T20:11:41.598Z,4.90
2018-02-07T20:14:10.244Z,4.80
2018-02-07T20:16:38.486Z,4.70
2018-02-07T20:19:06.806Z,4.70
2018-02-07T20:21:35.078Z,4.80
2018-02-07T20:24:03.451Z,4.80
2018-02-07T20:26:31.701Z,4.90
2018-02-07T20:28:59.981Z,4.90
2018-02-07T20:31:28.234Z,4.70
2018-02-07T20:33:56.490Z,4.60
2018-02-07T20:36:25.622Z,4.00
2018-02-07T20:38:53.870Z,3.90
2018-02-07T20:41:22.966Z,3.90
2018-02-07T20:43:52.514Z,4.00
2018-02-07T20:46:20.774Z,4.00
2018-02-07T20:48:49.506Z,3.90
2018-02-07T20:51:17.786Z,4.00
2018-02-07T20:53:46.045Z,4.00
2018-02-07T20:56:14.300Z,4.00
2018-02-07T20:58:42.890Z,4.00
2018-02-07T21:01:11.138Z,4.10
2018-02-07T21:03:40.715Z,4.20
2018-02-07T21:06:12.220Z,4.20
2018-02-07T21:08:40.534Z,4.20
2018-02-07T21:11:08.914Z,4.30
2018-02-07T21:13:37.204Z,4.20
2018-02-07T21:16:05.450Z,4.10
2018-02-07T21:18:33.698Z,4.00
2018-02-07T21:21:02.317Z,4.10
2018-02-07T21:23:30.591Z,4.20
2018-02-07T21:26:01.034Z,4.20
2018-02-07T21:28:29.446Z,4.20
2018-02-07T21:30:58.738Z,4.30
2018-02-07T21:33:27.770Z,4.30
2018-02-07T21:35:57.043Z,4.30
2018-02-07T21:38:26.067Z,4.30
2018-02-07T21:40:56.534Z,4.20
2018-02-07T21:43:25.302Z,4.50
2018-02-07T21:45:53.550Z,4.50
2018-02-07T21:48:21.978Z,4.40
2018-02-07T21:50:50.386Z,4.30
2018-02-07T21:53:19.654Z,4.00
2018-02-07T21:55:52.100Z,4.00
2018-02-07T21:58:20.410Z,4.00
2018-02-07T22:00:48.790Z,4.00
2018-02-07T22:03:17.118Z,4.00
2018-02-07T22:05:45.546Z,3.90
2018-02-07T22:08:13.933Z,3.90
2018-02-07T22:10:42.392Z,4.00
2018-02-07T22:13:10.687Z,4.20
2018-02-07T22:15:39.068Z,4.20
2018-02-07T22:18:07.490Z,4.20
2018-02-07T22:20:36.500Z,4.10
2018-02-07T22:23:04.766Z,4.10
2018-02-07T22:25:33.090Z,4.10
2018-02-07T22:28:01.573Z,4.20
2018-02-07T22:30:30.911Z,4.20
2018-02-07T22:33:00.082Z,4.00
2018-02-07T22:35:29.478Z,4.10
2018-02-07T22:37:58.164Z,4.10
2018-02-07T22:40:26.562Z,4.00
2018-02-07T22:42:55.590Z,4.00
2018-02-07T22:45:23.914Z,3.90
2018-02-07T22:47:52.598Z,4.00
2018-02-07T22:50:20.860Z,3.90
2018-02-07T22:52:49.109Z,3.90
2018-02-07T22:55:17.462Z,3.90
2018-02-07T22:57:46.734Z,3.90
2018-02-07T23:00:15.110Z,3.90
2018-02-07T23:02:43.385Z,3.90
2018-02-07T23:05:11.695Z,3.90
2018-02-07T23:07:39.971Z,3.90
2018-02-07T23:10:09.073Z,3.80
2018-02-07T23:12:37.330Z,3.80
2018-02-07T23:15:05.581Z,3.80
2018-02-07T23:17:33.861Z,3.80
2018-02-07T23:20:02.102Z,3.70
2018-02-07T23:22:30.522Z,3.70
2018-02-07T23:24:58.990Z,3.70
2018-02-07T23:27:27.266Z,3.70
2018-02-07T23:29:55.506Z,3.70
2018-02-07T23:32:23.839Z,3.70
2018-02-07T23:34:52.119Z,3.60
2018-02-07T23:37:20.490Z,3.60
2018-02-07T23:39:48.766Z,3.50
2018-02-07T23:42:18.673Z,3.40
2018-02-07T23:44:46.906Z,3.40
2018-02-07T23:47:15.261Z,3.30
2018-02-07T23:49:44.282Z,3.20
2018-02-07T23:52:12.615Z,3.20
2018-02-07T23:54:41.114Z,3.20
2018-02-07T23:57:09.366Z,3.10
2018-02-07T23:59:37.650Z,3.10
